Horace, Nebraska
Current Conditions -  °F | °C
As of 8:53 AM on Friday 24 Oct 2014 (Local Time) from KODX Reporting Station
Haze Haze  
Wind Chill:   Ceiling: Unl
Heat Index:   Visibility: 2.5mi
Dew Point:   Wind: 5mph
Humidity: 97%   Direction: 320°NW
Pressure: 29.93"   Gusts: NA
Location:  41.5399°N, 98.6677°W
Report Text: KODX 241353Z AUTO 32004KT 2 1/2SM BR CLR 07/07 A2993 RMK AO2 SLP139 T00720067
Loading
Personal Weather Stations






























Interactive Weather Map
Tropical Storm Tracking
New forecast layout! Learn more

10-Day Weather Forecast

Advertisements
Track Severe Weather on mobile